sensor_id;sensor_type;location;lat;lon;timestamp;pressure;altitude;pressure_sealevel;temperature;humidity
20860;BME280;10590;48.154;11.514;2023-02-01T00:03:02;96200.50;;;3.00;67.83
20860;BME280;10590;48.154;11.514;2023-02-01T00:08:05;96203.75;;;3.12;67.39
20860;BME280;10590;48.154;11.514;2023-02-01T00:13:08;96204.31;;;3.14;67.03
20860;BME280;10590;48.154;11.514;2023-02-01T00:18:10;96202.97;;;3.12;66.98
20860;BME280;10590;48.154;11.514;2023-02-01T00:23:12;96201.13;;;3.12;66.73
20860;BME280;10590;48.154;11.514;2023-02-01T00:28:15;96199.78;;;3.10;67.31
20860;BME280;10590;48.154;11.514;2023-02-01T00:33:16;96204.06;;;3.16;68.09
20860;BME280;10590;48.154;11.514;2023-02-01T00:38:21;96190.50;;;3.02;69.23
20860;BME280;10590;48.154;11.514;2023-02-01T00:43:24;96196.25;;;2.94;70.28
20860;BME280;10590;48.154;11.514;2023-02-01T00:48:26;96193.78;;;2.82;71.63
20860;BME280;10590;48.154;11.514;2023-02-01T00:53:28;96187.13;;;2.75;72.93
20860;BME280;10590;48.154;11.514;2023-02-01T00:58:31;96176.16;;;2.56;74.73
20860;BME280;10590;48.154;11.514;2023-02-01T01:03:35;96184.47;;;2.43;75.34
20860;BME280;10590;48.154;11.514;2023-02-01T01:08:38;96178.91;;;2.39;75.56
20860;BME280;10590;48.154;11.514;2023-02-01T01:13:41;96182.53;;;2.33;75.70
20860;BME280;10590;48.154;11.514;2023-02-01T01:18:43;96175.22;;;2.40;76.26
20860;BME280;10590;48.154;11.514;2023-02-01T01:23:46;96172.13;;;2.48;75.87
20860;BME280;10590;48.154;11.514;2023-02-01T01:28:50;96172.72;;;2.55;74.70
20860;BME280;10590;48.154;11.514;2023-02-01T01:33:53;96172.00;;;2.60;75.34
20860;BME280;10590;48.154;11.514;2023-02-01T01:38:55;96168.06;;;2.63;75.62
20860;BME280;10590;48.154;11.514;2023-02-01T01:44:00;96159.56;;;2.55;76.62
20860;BME280;10590;48.154;11.514;2023-02-01T01:49:06;96157.13;;;2.49;77.39
20860;BME280;10590;48.154;11.514;2023-02-01T01:54:14;96143.66;;;2.45;77.60
20860;BME280;10590;48.154;11.514;2023-02-01T01:59:20;96131.75;;;2.38;78.26
20860;BME280;10590;48.154;11.514;2023-02-01T02:04:22;96125.09;;;2.30;78.69
20860;BME280;10590;48.154;11.514;2023-02-01T02:09:25;96118.69;;;2.21;79.07
20860;BME280;10590;48.154;11.514;2023-02-01T02:14:28;96106.94;;;2.02;79.22
20860;BME280;10590;48.154;11.514;2023-02-01T02:25:25;96125.56;;;2.22;79.08
20860;BME280;10590;48.154;11.514;2023-02-01T02:31:04;96147.16;;;2.24;79.19
20860;BME280;10590;48.154;11.514;2023-02-01T02:36:23;96139.25;;;2.24;79.15
20860;BME280;10590;48.154;11.514;2023-02-01T02:41:33;96147.72;;;2.26;79.07
20860;BME280;10590;48.154;11.514;2023-02-01T02:46:59;96134.00;;;2.24;79.68
20860;BME280;10590;48.154;11.514;2023-02-01T02:52:22;96130.63;;;2.29;79.30
20860;BME280;10590;48.154;11.514;2023-02-01T02:57:42;96126.97;;;2.35;78.81
20860;BME280;10590;48.154;11.514;2023-02-01T03:03:03;96130.22;;;2.42;78.49
20860;BME280;10590;48.154;11.514;2023-02-01T03:08:25;96112.06;;;2.45;78.24
20860;BME280;10590;48.154;11.514;2023-02-01T03:13:36;96104.16;;;2.45;77.32
20860;BME280;10590;48.154;11.514;2023-02-01T03:18:46;96101.84;;;2.54;77.12
20860;BME280;10590;48.154;11.514;2023-02-01T03:23:53;96091.34;;;2.59;76.85
20860;BME280;10590;48.154;11.514;2023-02-01T03:29:02;96099.56;;;2.63;76.21
20860;BME280;10590;48.154;11.514;2023-02-01T03:34:05;96108.81;;;2.65;76.68
20860;BME280;10590;48.154;11.514;2023-02-01T03:39:13;96104.34;;;2.66;76.05
20860;BME280;10590;48.154;11.514;2023-02-01T03:44:19;96090.66;;;2.69;75.79
20860;BME280;10590;48.154;11.514;2023-02-01T03:49:25;96084.63;;;2.73;75.17
20860;BME280;10590;48.154;11.514;2023-02-01T03:54:30;96083.31;;;2.71;75.50
20860;BME280;10590;48.154;11.514;2023-02-01T03:59:33;96085.69;;;2.72;75.40
20860;BME280;10590;48.154;11.514;2023-02-01T04:04:35;96083.06;;;2.77;74.87
20860;BME280;10590;48.154;11.514;2023-02-01T04:09:38;96073.53;;;2.66;74.75
20860;BME280;10590;48.154;11.514;2023-02-01T04:14:40;96092.28;;;2.75;75.21
20860;BME280;10590;48.154;11.514;2023-02-01T04:19:41;96098.34;;;2.75;74.64
20860;BME280;10590;48.154;11.514;2023-02-01T04:24:44;96074.38;;;2.77;74.42
20860;BME280;10590;48.154;11.514;2023-02-01T04:29:46;96083.31;;;2.71;74.53
20860;BME280;10590;48.154;11.514;2023-02-01T04:34:49;96072.72;;;2.66;74.34
20860;BME280;10590;48.154;11.514;2023-02-01T04:39:52;96073.59;;;2.76;73.61
20860;BME280;10590;48.154;11.514;2023-02-01T04:44:54;96082.25;;;2.72;73.85
20860;BME280;10590;48.154;11.514;2023-02-01T04:49:55;96064.34;;;2.74;73.67
20860;BME280;10590;48.154;11.514;2023-02-01T04:54:58;96093.63;;;2.77;73.63
20860;BME280;10590;48.154;11.514;2023-02-01T05:00:04;96071.16;;;2.70;73.79
20860;BME280;10590;48.154;11.514;2023-02-01T05:05:08;96096.47;;;2.71;73.65
20860;BME280;10590;48.154;11.514;2023-02-01T05:10:11;96074.31;;;2.67;73.71
20860;BME280;10590;48.154;11.514;2023-02-01T05:15:13;96104.38;;;2.71;73.56
20860;BME280;10590;48.154;11.514;2023-02-01T05:20:15;96100.44;;;2.73;73.24
20860;BME280;10590;48.154;11.514;2023-02-01T05:25:19;96094.41;;;2.78;73.08
20860;BME280;10590;48.154;11.514;2023-02-01T05:30:20;96107.28;;;2.74;73.26
20860;BME280;10590;48.154;11.514;2023-02-01T05:35:22;96098.09;;;2.77;72.89
20860;BME280;10590;48.154;11.514;2023-02-01T05:40:25;96084.38;;;2.75;72.88
20860;BME280;10590;48.154;11.514;2023-02-01T05:45:27;96084.38;;;2.75;72.92
20860;BME280;10590;48.154;11.514;2023-02-01T05:50:28;96076.97;;;2.72;72.59
20860;BME280;10590;48.154;11.514;2023-02-01T05:55:31;96084.38;;;2.75;72.99
20860;BME280;10590;48.154;11.514;2023-02-01T06:00:33;96084.41;;;2.80;72.67
20860;BME280;10590;48.154;11.514;2023-02-01T06:05:35;96077.00;;;2.77;72.93
20860;BME280;10590;48.154;11.514;2023-02-01T06:10:38;96079.66;;;2.77;72.91
20860;BME280;10590;48.154;11.514;2023-02-01T06:15:40;96074.91;;;2.79;72.83
20860;BME280;10590;48.154;11.514;2023-02-01T06:20:42;96086.25;;;2.79;72.70
20860;BME280;10590;48.154;11.514;2023-02-01T06:25:45;96082.06;;;2.83;72.47
20860;BME280;10590;48.154;11.514;2023-02-01T06:30:47;96086.56;;;2.88;72.53
20860;BME280;10590;48.154;11.514;2023-02-01T06:35:48;96063.34;;;2.85;72.21
20860;BME280;10590;48.154;11.514;2023-02-01T06:40:53;96064.94;;;2.86;72.19
20860;BME280;10590;48.154;11.514;2023-02-01T06:45:59;96065.47;;;2.88;72.37
20860;BME280;10590;48.154;11.514;2023-02-01T06:51:01;96061.78;;;2.84;72.15
20860;BME280;10590;48.154;11.514;2023-02-01T06:56:04;96059.13;;;2.84;72.43
20860;BME280;10590;48.154;11.514;2023-02-01T07:01:07;96078.19;;;2.96;71.79
20860;BME280;10590;48.154;11.514;2023-02-01T07:06:09;96076.59;;;2.95;71.74
20860;BME280;10590;48.154;11.514;2023-02-01T07:11:13;96078.19;;;2.96;72.10
20860;BME280;10590;48.154;11.514;2023-02-01T07:16:18;96060.81;;;3.05;71.43
20860;BME280;10590;48.154;11.514;2023-02-01T07:21:20;96056.06;;;3.02;71.62
20860;BME280;10590;48.154;11.514;2023-02-01T07:26:24;96051.06;;;3.06;71.41
20860;BME280;10590;48.154;11.514;2023-02-01T07:31:25;96057.69;;;3.13;70.71
20860;BME280;10590;48.154;11.514;2023-02-01T07:36:29;96062.19;;;3.13;71.02
20860;BME280;10590;48.154;11.514;2023-02-01T07:41:32;96059.28;;;3.14;70.71
20860;BME280;10590;48.154;11.514;2023-02-01T07:46:33;96049.81;;;3.18;70.47
20860;BME280;10590;48.154;11.514;2023-02-01T07:51:36;96050.06;;;3.17;70.28
20860;BME280;10590;48.154;11.514;2023-02-01T07:56:39;96060.41;;;3.29;69.82
20860;BME280;10590;48.154;11.514;2023-02-01T08:01:40;96075.97;;;3.30;69.67
20860;BME280;10590;48.154;11.514;2023-02-01T08:06:42;96076.25;;;3.34;69.51
20860;BME280;10590;48.154;11.514;2023-02-01T08:11:46;96092.09;;;3.39;69.53
20860;BME280;10590;48.154;11.514;2023-02-01T08:16:48;96101.13;;;3.48;68.66
20860;BME280;10590;48.154;11.514;2023-02-01T08:21:49;96099.06;;;3.60;67.72
20860;BME280;10590;48.154;11.514;2023-02-01T08:26:52;96080.06;;;3.58;67.14
20860;BME280;10590;48.154;11.514;2023-02-01T08:31:54;96097.47;;;3.59;66.71
20860;BME280;10590;48.154;11.514;2023-02-01T08:36:55;96112.81;;;3.72;65.81
20860;BME280;10590;48.154;11.514;2023-02-01T08:42:01;96110.72;;;3.79;65.21
20860;BME280;10590;48.154;11.514;2023-02-01T08:47:20;96111.31;;;3.97;64.78
20860;BME280;10590;48.154;11.514;2023-02-01T08:52:22;96099.69;;;3.98;64.77
20860;BME280;10590;48.154;11.514;2023-02-01T08:57:27;96105.50;;;3.95;64.63
20860;BME280;10590;48.154;11.514;2023-02-01T09:02:29;96104.19;;;4.02;64.80
20860;BME280;10590;48.154;11.514;2023-02-01T09:07:31;96098.09;;;4.02;64.35
20860;BME280;10590;48.154;11.514;2023-02-01T09:12:35;96111.59;;;4.15;63.68
20860;BME280;10590;48.154;11.514;2023-02-01T09:17:43;96102.88;;;4.05;63.39
20860;BME280;10590;48.154;11.514;2023-02-01T09:22:45;96109.75;;;4.16;63.83
20860;BME280;10590;48.154;11.514;2023-02-01T09:27:50;96099.19;;;4.26;63.43
20860;BME280;10590;48.154;11.514;2023-02-01T09:32:52;96107.94;;;4.37;63.24
20860;BME280;10590;48.154;11.514;2023-02-01T09:37:54;96096.59;;;4.36;63.63
20860;BME280;10590;48.154;11.514;2023-02-01T09:43:11;96105.31;;;4.42;63.23
20860;BME280;10590;48.154;11.514;2023-02-01T09:48:21;96110.34;;;4.48;63.31
20860;BME280;10590;48.154;11.514;2023-02-01T09:53:29;96115.09;;;4.41;63.56
20860;BME280;10590;48.154;11.514;2023-02-01T09:58:36;96124.59;;;4.47;63.44
20860;BME280;10590;48.154;11.514;2023-02-01T10:03:39;96104.22;;;4.28;63.30
20860;BME280;10590;48.154;11.514;2023-02-01T10:08:56;96122.50;;;4.50;63.63
20860;BME280;10590;48.154;11.514;2023-02-01T10:14:09;96124.06;;;4.45;63.62
20860;BME280;10590;48.154;11.514;2023-02-01T10:19:27;96117.19;;;4.39;63.95
20860;BME280;10590;48.154;11.514;2023-02-01T10:24:38;96138.59;;;4.43;64.16
20860;BME280;10590;48.154;11.514;2023-02-01T10:29:44;96128.78;;;4.33;64.98
20860;BME280;10590;48.154;11.514;2023-02-01T10:34:50;96133.03;;;4.34;64.50
20860;BME280;10590;48.154;11.514;2023-02-01T10:39:55;96144.69;;;4.43;64.83
20860;BME280;10590;48.154;11.514;2023-02-01T10:44:59;96137.78;;;4.32;65.23
20860;BME280;10590;48.154;11.514;2023-02-01T10:50:15;96122.47;;;4.39;64.40
20860;BME280;10590;48.154;11.514;2023-02-01T10:55:37;96133.31;;;4.48;64.90
20860;BME280;10590;48.154;11.514;2023-02-01T11:00:45;96138.06;;;4.51;64.59
20860;BME280;10590;48.154;11.514;2023-02-01T11:05:49;96133.84;;;4.55;64.97
20860;BME280;10590;48.154;11.514;2023-02-01T11:10:57;96139.66;;;4.62;63.99
20860;BME280;10590;48.154;11.514;2023-02-01T11:16:02;96150.22;;;4.47;64.92
20860;BME280;10590;48.154;11.514;2023-02-01T11:21:06;96150.50;;;4.66;65.69
20860;BME280;10590;48.154;11.514;2023-02-01T11:26:11;96147.31;;;4.38;64.77
20860;BME280;10590;48.154;11.514;2023-02-01T11:31:15;96148.09;;;4.34;64.71
20860;BME280;10590;48.154;11.514;2023-02-01T11:36:21;96148.31;;;4.27;65.45
20860;BME280;10590;48.154;11.514;2023-02-01T11:41:26;96138.81;;;4.26;65.49
20860;BME280;10590;48.154;11.514;2023-02-01T11:46:31;96149.63;;;4.09;65.20
20860;BME280;10590;48.154;11.514;2023-02-01T11:51:43;96151.44;;;3.99;65.77
20860;BME280;10590;48.154;11.514;2023-02-01T11:56:57;96130.34;;;4.09;65.92
20860;BME280;10590;48.154;11.514;2023-02-01T12:02:22;96127.19;;;4.12;66.25
20860;BME280;10590;48.154;11.514;2023-02-01T12:07:44;96118.44;;;4.06;66.46
20860;BME280;10590;48.154;11.514;2023-02-01T12:12:58;96097.03;;;3.93;66.48
20860;BME280;10590;48.154;11.514;2023-02-01T12:18:18;96099.72;;;4.08;66.23
20860;BME280;10590;48.154;11.514;2023-02-01T12:23:53;96108.38;;;3.88;66.33
20860;BME280;10590;48.154;11.514;2023-02-01T12:29:10;96110.19;;;3.77;66.53
20860;BME280;10590;48.154;11.514;2023-02-01T12:34:29;96105.44;;;3.74;66.46
20860;BME280;10590;48.154;11.514;2023-02-01T12:39:39;96113.63;;;3.73;66.62
20860;BME280;10590;48.154;11.514;2023-02-01T12:44:48;96110.72;;;3.74;66.67
20860;BME280;10590;48.154;11.514;2023-02-01T12:49:58;96097.78;;;3.73;66.03
20860;BME280;10590;48.154;11.514;2023-02-01T12:55:09;96074.28;;;3.71;65.50
20860;BME280;10590;48.154;11.514;2023-02-01T13:00:23;96061.63;;;3.73;65.11
20860;BME280;10590;48.154;11.514;2023-02-01T13:05:33;96080.94;;;3.94;64.69
20860;BME280;10590;48.154;11.514;2023-02-01T13:10:38;96073.28;;;3.98;64.12
20860;BME280;10590;48.154;11.514;2023-02-01T13:15:46;96072.75;;;4.01;64.29
20860;BME280;10590;48.154;11.514;2023-02-01T13:20:54;96075.41;;;3.96;64.98
20860;BME280;10590;48.154;11.514;2023-02-01T13:25:59;96057.97;;;3.95;65.19
20860;BME280;10590;48.154;11.514;2023-02-01T13:31:36;96067.47;;;3.96;65.57
20860;BME280;10590;48.154;11.514;2023-02-01T13:36:52;96047.38;;;3.79;66.60
20860;BME280;10590;48.154;11.514;2023-02-01T13:41:59;96063.25;;;3.95;67.13
20860;BME280;10590;48.154;11.514;2023-02-01T13:47:08;96063.50;;;3.88;67.12
20860;BME280;10590;48.154;11.514;2023-02-01T13:52:26;96060.59;;;3.90;67.89
20860;BME280;10590;48.154;11.514;2023-02-01T13:57:35;96066.69;;;3.90;67.79
20860;BME280;10590;48.154;11.514;2023-02-01T14:03:06;96060.06;;;3.77;68.06
20860;BME280;10590;48.154;11.514;2023-02-01T14:08:13;96073.25;;;3.82;68.43
20860;BME280;10590;48.154;11.514;2023-02-01T14:13:24;96069.03;;;3.81;68.49
20860;BME280;10590;48.154;11.514;2023-02-01T14:18:59;96071.66;;;3.81;68.53
20860;BME280;10590;48.154;11.514;2023-02-01T14:24:04;96055.81;;;3.71;68.32
20860;BME280;10590;48.154;11.514;2023-02-01T14:29:33;96066.91;;;3.78;67.39
20860;BME280;10590;48.154;11.514;2023-02-01T14:34:40;96070.88;;;3.81;66.32
20860;BME280;10590;48.154;11.514;2023-02-01T14:39:57;96069.31;;;3.85;66.26
20860;BME280;10590;48.154;11.514;2023-02-01T14:50:44;96073.25;;;3.77;65.69
20860;BME280;10590;48.154;11.514;2023-02-01T14:55:51;96097.28;;;3.81;66.02
20860;BME280;10590;48.154;11.514;2023-02-01T15:00:55;96078.28;;;3.84;65.48
20860;BME280;10590;48.154;11.514;2023-02-01T15:05:58;96079.88;;;3.85;65.71
20860;BME280;10590;48.154;11.514;2023-02-01T15:11:12;96083.03;;;3.82;65.67
20860;BME280;10590;48.154;11.514;2023-02-01T15:16:16;96085.66;;;3.82;65.81
20860;BME280;10590;48.154;11.514;2023-02-01T15:21:20;96080.63;;;3.70;66.18
20860;BME280;10590;48.154;11.514;2023-02-01T15:26:28;96089.63;;;3.79;66.46
20860;BME280;10590;48.154;11.514;2023-02-01T15:31:32;96082.69;;;3.58;67.27
20860;BME280;10590;48.154;11.514;2023-02-01T15:36:34;96087.94;;;3.48;68.62
20860;BME280;10590;48.154;11.514;2023-02-01T15:41:39;96097.88;;;3.36;68.92
20860;BME280;10590;48.154;11.514;2023-02-01T15:46:42;96081.50;;;3.29;68.67
20860;BME280;10590;48.154;11.514;2023-02-01T15:51:47;96091.56;;;3.37;68.82
20860;BME280;10590;48.154;11.514;2023-02-01T15:56:53;96091.03;;;3.35;68.83
20860;BME280;10590;48.154;11.514;2023-02-01T16:01:55;96075.38;;;3.18;69.70
20860;BME280;10590;48.154;11.514;2023-02-01T16:06:58;96094.16;;;3.27;69.79
20860;BME280;10590;48.154;11.514;2023-02-01T16:12:17;96102.03;;;3.22;69.56
20860;BME280;10590;48.154;11.514;2023-02-01T16:17:21;96096.25;;;3.25;68.27
20860;BME280;10590;48.154;11.514;2023-02-01T16:22:22;96107.84;;;3.24;68.09
20860;BME280;10590;48.154;11.514;2023-02-01T16:27:25;96103.63;;;3.23;67.59
20860;BME280;10590;48.154;11.514;2023-02-01T16:32:28;96115.28;;;3.32;66.79
20860;BME280;10590;48.154;11.514;2023-02-01T16:37:31;96104.16;;;3.25;66.84
20860;BME280;10590;48.154;11.514;2023-02-01T16:42:37;96118.44;;;3.34;67.18
20860;BME280;10590;48.154;11.514;2023-02-01T16:47:42;96124.50;;;3.34;67.19
20860;BME280;10590;48.154;11.514;2023-02-01T16:52:46;96103.44;;;3.39;66.62
20860;BME280;10590;48.154;11.514;2023-02-01T16:57:49;96105.81;;;3.41;66.87
20860;BME280;10590;48.154;11.514;2023-02-01T17:02:51;96098.19;;;3.44;66.35
20860;BME280;10590;48.154;11.514;2023-02-01T17:07:52;96082.63;;;3.43;65.94
20860;BME280;10590;48.154;11.514;2023-02-01T17:12:55;96100.09;;;3.54;65.12
20860;BME280;10590;48.154;11.514;2023-02-01T17:17:58;96088.22;;;3.57;64.66
20860;BME280;10590;48.154;11.514;2023-02-01T17:23:02;96089.56;;;3.59;64.19
20860;BME280;10590;48.154;11.514;2023-02-01T17:28:05;96084.81;;;3.61;63.73
20860;BME280;10590;48.154;11.514;2023-02-01T17:33:23;96089.06;;;3.67;63.46
20860;BME280;10590;48.154;11.514;2023-02-01T17:38:25;96091.16;;;3.65;63.64
20860;BME280;10590;48.154;11.514;2023-02-01T17:43:28;96099.38;;;3.74;62.74
20860;BME280;10590;48.154;11.514;2023-02-01T17:48:30;96100.69;;;3.71;62.65
20860;BME280;10590;48.154;11.514;2023-02-01T17:53:31;96105.44;;;3.74;62.64
20860;BME280;10590;48.154;11.514;2023-02-01T17:58:36;96094.38;;;3.77;62.34
20860;BME280;10590;48.154;11.514;2023-02-01T18:03:38;96101.50;;;3.82;62.05
20860;BME280;10590;48.154;11.514;2023-02-01T18:08:40;96100.16;;;3.79;62.49
20860;BME280;10590;48.154;11.514;2023-02-01T18:13:43;96103.06;;;3.78;61.86
20860;BME280;10590;48.154;11.514;2023-02-01T18:18:45;96106.50;;;3.78;61.76
20860;BME280;10590;48.154;11.514;2023-02-01T18:23:47;96105.97;;;3.76;61.94
20860;BME280;10590;48.154;11.514;2023-02-01T18:28:50;96086.16;;;3.69;62.40
20860;BME280;10590;48.154;11.514;2023-02-01T18:33:53;96108.09;;;3.79;61.94
20860;BME280;10590;48.154;11.514;2023-02-01T18:38:55;96099.63;;;3.67;62.11
20860;BME280;10590;48.154;11.514;2023-02-01T18:43:58;96106.50;;;3.73;61.62
20860;BME280;10590;48.154;11.514;2023-02-01T18:49:00;96097.81;;;3.83;61.22
20860;BME280;10590;48.154;11.514;2023-02-01T18:54:01;96102.81;;;3.84;61.01
20860;BME280;10590;48.154;11.514;2023-02-01T18:59:04;96073.78;;;3.74;60.84
20860;BME280;10590;48.154;11.514;2023-02-01T19:04:06;96090.94;;;3.82;61.03
20860;BME280;10590;48.154;11.514;2023-02-01T19:09:07;96090.94;;;3.77;61.00
20860;BME280;10590;48.154;11.514;2023-02-01T19:14:10;96103.34;;;3.81;60.81
20860;BME280;10590;48.154;11.514;2023-02-01T19:19:12;96096.75;;;3.79;60.64
20860;BME280;10590;48.154;11.514;2023-02-01T19:24:13;96073.78;;;3.74;60.79
20860;BME280;10590;48.154;11.514;2023-02-01T19:29:16;96085.94;;;3.80;60.64
20860;BME280;10590;48.154;11.514;2023-02-01T19:34:18;96083.28;;;3.80;60.64
20860;BME280;10590;48.154;11.514;2023-02-01T19:39:20;96090.16;;;3.81;60.88
20860;BME280;10590;48.154;11.514;2023-02-01T19:44:26;96096.47;;;3.80;60.62
20860;BME280;10590;48.154;11.514;2023-02-01T19:49:28;96084.06;;;3.81;60.59
20860;BME280;10590;48.154;11.514;2023-02-01T19:54:30;96073.00;;;3.79;60.97
20860;BME280;10590;48.154;11.514;2023-02-01T19:59:33;96079.06;;;3.79;60.75
20860;BME280;10590;48.154;11.514;2023-02-01T20:04:35;96084.59;;;3.78;61.08
20860;BME280;10590;48.154;11.514;2023-02-01T20:09:38;96083.28;;;3.80;61.07
20860;BME280;10590;48.154;11.514;2023-02-01T20:14:43;96088.03;;;3.83;60.78
20860;BME280;10590;48.154;11.514;2023-02-01T20:19:44;96104.41;;;3.80;61.27
20860;BME280;10590;48.154;11.514;2023-02-01T20:24:46;96109.16;;;3.83;61.02
20860;BME280;10590;48.154;11.514;2023-02-01T20:29:49;96098.59;;;3.78;61.02
20860;BME280;10590;48.154;11.514;2023-02-01T20:34:51;96104.16;;;3.87;60.81
20860;BME280;10590;48.154;11.514;2023-02-01T20:39:53;96097.28;;;3.81;60.81
20860;BME280;10590;48.154;11.514;2023-02-01T20:44:56;96108.91;;;3.85;61.29
20860;BME280;10590;48.154;11.514;2023-02-01T20:49:57;96099.41;;;3.89;61.14
20860;BME280;10590;48.154;11.514;2023-02-01T20:54:59;96111.53;;;3.85;61.56
20860;BME280;10590;48.154;11.514;2023-02-01T21:00:05;96105.75;;;3.88;61.53
20860;BME280;10590;48.154;11.514;2023-02-01T21:05:09;96113.41;;;3.90;61.42
20860;BME280;10590;48.154;11.514;2023-02-01T21:10:11;96095.72;;;3.90;61.80
20860;BME280;10590;48.154;11.514;2023-02-01T21:15:14;96100.72;;;3.81;62.62
20860;BME280;10590;48.154;11.514;2023-02-01T21:20:16;96102.53;;;3.71;63.58
20860;BME280;10590;48.154;11.514;2023-02-01T21:25:18;96088.28;;;3.77;63.27
20860;BME280;10590;48.154;11.514;2023-02-01T21:30:21;96071.63;;;3.61;63.99
20860;BME280;10590;48.154;11.514;2023-02-01T21:35:23;96083.75;;;3.62;65.31
20860;BME280;10590;48.154;11.514;2023-02-01T21:40:24;96094.34;;;3.67;64.33
20860;BME280;10590;48.154;11.514;2023-02-01T21:45:27;96060.25;;;3.50;64.52
20860;BME280;10590;48.154;11.514;2023-02-01T21:50:29;96076.63;;;3.63;64.70
20860;BME280;10590;48.154;11.514;2023-02-01T21:55:31;96088.00;;;3.63;64.20
20860;BME280;10590;48.154;11.514;2023-02-01T22:00:34;96051.53;;;3.50;64.27
20860;BME280;10590;48.154;11.514;2023-02-01T22:05:35;96076.34;;;3.54;65.28
20860;BME280;10590;48.154;11.514;2023-02-01T22:10:37;96075.84;;;3.62;64.27
20860;BME280;10590;48.154;11.514;2023-02-01T22:15:42;96095.09;;;3.63;64.53
20860;BME280;10590;48.154;11.514;2023-02-01T22:20:44;96087.72;;;3.65;64.28
20860;BME280;10590;48.154;11.514;2023-02-01T22:25:45;96100.16;;;3.74;63.75
20860;BME280;10590;48.154;11.514;2023-02-01T22:30:48;96088.00;;;3.68;64.01
20860;BME280;10590;48.154;11.514;2023-02-01T22:35:50;96097.25;;;3.71;64.12
20860;BME280;10590;48.154;11.514;2023-02-01T22:40:54;96097.50;;;3.69;64.17
20860;BME280;10590;48.154;11.514;2023-02-01T22:45:59;96098.03;;;3.66;64.84
20860;BME280;10590;48.154;11.514;2023-02-01T22:51:02;96090.88;;;3.57;65.68
20860;BME280;10590;48.154;11.514;2023-02-01T22:56:05;96076.88;;;3.51;66.05
20860;BME280;10590;48.154;11.514;2023-02-01T23:01:10;96084.25;;;3.54;66.06
20860;BME280;10590;48.154;11.514;2023-02-01T23:06:11;96072.13;;;3.53;65.98
20860;BME280;10590;48.154;11.514;2023-02-01T23:11:17;96078.47;;;3.57;65.36
20860;BME280;10590;48.154;11.514;2023-02-01T23:16:21;96083.50;;;3.59;65.54
20860;BME280;10590;48.154;11.514;2023-02-01T23:21:23;96074.50;;;3.55;65.88
20860;BME280;10590;48.154;11.514;2023-02-01T23:26:26;96085.06;;;3.55;65.80
20860;BME280;10590;48.154;11.514;2023-02-01T23:31:32;96056.31;;;3.58;65.43
20860;BME280;10590;48.154;11.514;2023-02-01T23:36:33;96069.78;;;3.62;65.34
20860;BME280;10590;48.154;11.514;2023-02-01T23:41:35;96059.22;;;3.67;64.75
20860;BME280;10590;48.154;11.514;2023-02-01T23:46:40;96069.25;;;3.65;64.58
20860;BME280;10590;48.154;11.514;2023-02-01T23:51:43;96082.72;;;3.63;65.29
20860;BME280;10590;48.154;11.514;2023-02-01T23:56:47;96073.47;;;3.61;65.32
